createdAt,value
2022-12-27T00:02:18.063Z,19.50
2022-12-27T00:04:44.720Z,19.50
2022-12-27T00:07:11.356Z,19.50
2022-12-27T00:09:37.987Z,19.50
2022-12-27T00:12:05.026Z,19.50
2022-12-27T00:14:31.635Z,19.40
2022-12-27T00:16:58.256Z,19.40
2022-12-27T00:19:24.945Z,19.40
2022-12-27T00:21:51.575Z,19.40
2022-12-27T00:24:18.201Z,19.40
2022-12-27T00:26:44.805Z,19.40
2022-12-27T00:29:11.413Z,19.40
2022-12-27T00:31:38.350Z,19.40
2022-12-27T00:34:07.616Z,19.30
2022-12-27T00:36:34.982Z,19.30
2022-12-27T00:39:02.239Z,19.30
2022-12-27T00:41:28.863Z,19.30
2022-12-27T00:43:55.617Z,19.30
2022-12-27T00:46:22.349Z,19.30
2022-12-27T00:48:48.987Z,17.70
2022-12-27T00:51:18.509Z,19.30
2022-12-27T00:53:45.961Z,19.30
2022-12-27T00:56:17.276Z,19.30
2022-12-27T00:58:44.934Z,19.20
2022-12-27T01:01:14.398Z,19.20
2022-12-27T01:03:41.190Z,19.20
2022-12-27T01:06:14.152Z,19.20
2022-12-27T01:08:41.051Z,19.20
2022-12-27T01:11:08.539Z,19.20
2022-12-27T01:13:35.849Z,19.10
2022-12-27T01:16:07.931Z,19.30
2022-12-27T01:18:34.526Z,19.20
2022-12-27T01:21:08.528Z,19.30
2022-12-27T01:23:35.999Z,19.30
2022-12-27T01:26:04.888Z,19.30
2022-12-27T01:28:31.804Z,19.40
2022-12-27T01:30:58.425Z,19.30
2022-12-27T01:35:52.064Z,19.30
2022-12-27T01:38:18.673Z,19.20
2022-12-27T01:40:45.263Z,19.10
2022-12-27T01:43:18.807Z,19.10
2022-12-27T01:45:47.420Z,19.00
2022-12-27T01:48:21.511Z,19.10
2022-12-27T01:51:00.847Z,19.10
2022-12-27T01:53:34.905Z,19.10
2022-12-27T01:56:05.765Z,19.00
2022-12-27T01:58:54.674Z,19.10
2022-12-27T02:01:25.109Z,19.00
2022-12-27T02:04:08.891Z,19.00
2022-12-27T02:06:37.215Z,19.00
2022-12-27T02:09:28.373Z,19.00
2022-12-27T02:11:56.955Z,19.00
2022-12-27T02:14:33.684Z,19.00
2022-12-27T02:17:07.022Z,18.90
2022-12-27T02:19:57.162Z,19.00
2022-12-27T02:23:16.339Z,19.00
2022-12-27T02:26:25.866Z,18.90
2022-12-27T02:29:08.545Z,18.90
2022-12-27T02:31:52.920Z,18.90
2022-12-27T02:34:42.561Z,19.00
2022-12-27T02:37:14.605Z,19.00
2022-12-27T02:39:48.088Z,19.00
2022-12-27T02:42:35.672Z,19.20
2022-12-27T02:45:22.093Z,19.10
2022-12-27T02:48:08.089Z,19.10
2022-12-27T02:51:34.923Z,18.70
2022-12-27T02:54:30.467Z,19.00
2022-12-27T02:57:15.520Z,19.00
2022-12-27T03:00:21.806Z,18.90
2022-12-27T03:03:21.430Z,19.10
2022-12-27T03:06:34.009Z,19.00
2022-12-27T03:15:20.982Z,19.00
2022-12-27T03:17:58.146Z,19.00
2022-12-27T03:23:30.226Z,18.90
2022-12-27T03:25:59.868Z,18.90
2022-12-27T03:28:48.259Z,18.90
2022-12-27T03:31:47.077Z,18.90
2022-12-27T03:34:35.707Z,19.00
2022-12-27T03:37:26.078Z,19.00
2022-12-27T03:42:43.571Z,19.10
2022-12-27T03:45:10.660Z,18.90
2022-12-27T03:47:43.623Z,19.00
2022-12-27T03:50:35.261Z,19.10
2022-12-27T03:53:10.807Z,19.00
2022-12-27T03:55:38.151Z,18.90
2022-12-27T03:58:05.335Z,18.90
2022-12-27T04:00:31.963Z,18.90
2022-12-27T04:02:58.702Z,18.90
2022-12-27T04:05:25.402Z,18.80
2022-12-27T04:08:10.882Z,18.90
2022-12-27T04:13:42.171Z,18.90
2022-12-27T04:16:27.519Z,18.90
2022-12-27T04:19:13.070Z,18.80
2022-12-27T04:21:58.553Z,18.80
2022-12-27T04:24:44.008Z,18.80
2022-12-27T04:27:29.439Z,18.80
2022-12-27T04:30:14.857Z,18.80
2022-12-27T04:33:00.122Z,18.80
2022-12-27T04:35:26.782Z,18.80
2022-12-27T04:37:53.378Z,18.80
2022-12-27T04:40:38.609Z,18.80
2022-12-27T04:43:23.911Z,18.80
2022-12-27T04:46:09.325Z,18.80
2022-12-27T04:48:54.746Z,18.80
2022-12-27T04:51:44.697Z,18.80
2022-12-27T04:54:37.537Z,18.80
2022-12-27T04:57:04.817Z,18.80
2022-12-27T04:59:50.888Z,18.80
2022-12-27T05:02:19.275Z,18.80
2022-12-27T05:04:48.453Z,18.80
2022-12-27T05:07:34.063Z,18.80
2022-12-27T05:10:22.368Z,18.80
2022-12-27T05:13:07.458Z,18.80
2022-12-27T05:15:34.067Z,18.80
2022-12-27T05:18:00.704Z,18.70
2022-12-27T05:20:27.365Z,18.70
2022-12-27T05:23:12.527Z,18.80
2022-12-27T05:25:46.227Z,18.80
2022-12-27T05:28:13.440Z,18.70
2022-12-27T05:30:42.157Z,18.80
2022-12-27T05:33:09.198Z,18.70
2022-12-27T05:35:36.102Z,18.70
2022-12-27T05:38:03.053Z,18.70
2022-12-27T05:40:29.757Z,18.70
2022-12-27T05:42:59.370Z,18.70
2022-12-27T05:45:26.102Z,18.70
2022-12-27T05:47:53.053Z,18.70
2022-12-27T05:50:20.034Z,18.70
2022-12-27T05:52:46.639Z,18.70
2022-12-27T05:55:13.265Z,18.70
2022-12-27T05:57:39.866Z,18.70
2022-12-27T06:00:07.106Z,18.70
2022-12-27T06:02:33.799Z,18.70
2022-12-27T06:05:00.554Z,18.80
2022-12-27T06:07:27.171Z,18.80
2022-12-27T06:09:53.777Z,18.80
2022-12-27T06:12:20.375Z,18.80
2022-12-27T06:14:46.974Z,18.80
2022-12-27T06:17:13.654Z,18.80
2022-12-27T06:19:40.321Z,18.80
2022-12-27T06:22:06.918Z,18.80
2022-12-27T06:24:33.505Z,18.80
2022-12-27T06:27:00.118Z,18.80
2022-12-27T06:29:26.763Z,18.80
2022-12-27T06:31:53.396Z,18.80
2022-12-27T06:34:20.024Z,18.80
2022-12-27T06:36:50.659Z,18.90
2022-12-27T06:39:18.279Z,18.80
2022-12-27T06:41:44.862Z,18.90
2022-12-27T06:44:11.551Z,18.90
2022-12-27T06:46:38.191Z,18.90
2022-12-27T09:29:49.181Z,17.30
2022-12-27T09:32:15.846Z,16.50
2022-12-27T09:34:43.957Z,16.20
2022-12-27T09:37:11.569Z,16.10
2022-12-27T09:39:38.291Z,16.20
2022-12-27T09:45:22.068Z,16.70
2022-12-27T09:47:55.196Z,17.70
2022-12-27T09:50:31.228Z,17.80
2022-12-27T09:53:06.671Z,18.10
2022-12-27T09:55:55.516Z,18.30
2022-12-27T09:58:28.623Z,18.40
2022-12-27T10:00:55.624Z,18.50
2022-12-27T10:03:25.598Z,18.60
2022-12-27T10:06:20.453Z,18.70
2022-12-27T10:09:14.889Z,18.70
2022-12-27T10:11:57.841Z,18.70
2022-12-27T10:15:03.806Z,18.80
2022-12-27T10:17:43.346Z,18.90
2022-12-27T10:20:49.054Z,18.90
2022-12-27T10:23:23.934Z,18.90
2022-12-27T10:26:11.675Z,19.00
2022-12-27T10:28:56.886Z,19.00
2022-12-27T10:31:25.348Z,19.00
2022-12-27T10:33:52.932Z,19.00
2022-12-27T10:36:26.342Z,19.10
2022-12-27T10:38:54.327Z,19.10
2022-12-27T10:41:51.943Z,19.20
2022-12-27T10:44:18.520Z,19.20
2022-12-27T10:46:51.627Z,19.20
2022-12-27T10:49:33.923Z,19.20
2022-12-27T10:52:11.138Z,19.20
2022-12-27T10:54:51.103Z,19.30
2022-12-27T10:57:24.874Z,19.20
2022-12-27T11:00:09.269Z,19.30
2022-12-27T11:03:00.601Z,19.30
2022-12-27T11:05:29.705Z,19.30
2022-12-27T11:07:56.666Z,19.30
2022-12-27T11:10:26.813Z,19.30
2022-12-27T11:12:57.896Z,19.30
2022-12-27T11:15:26.189Z,19.40
2022-12-27T11:17:59.610Z,19.40
2022-12-27T11:20:50.075Z,19.30
2022-12-27T11:23:19.430Z,19.40
2022-12-27T11:26:00.604Z,19.30
2022-12-27T11:28:44.767Z,19.40
2022-12-27T11:31:17.762Z,19.40
2022-12-27T11:33:50.022Z,19.40
2022-12-27T11:36:29.357Z,19.40
2022-12-27T11:38:56.489Z,19.40
2022-12-27T11:41:36.219Z,19.40
2022-12-27T11:44:26.626Z,19.50
2022-12-27T11:47:06.256Z,19.50
2022-12-27T11:49:37.093Z,19.50
2022-12-27T11:52:22.517Z,19.50
2022-12-27T11:55:22.707Z,19.40
2022-12-27T11:57:52.783Z,19.40
2022-12-27T12:00:23.701Z,19.40
2022-12-27T12:03:32.698Z,19.40
2022-12-27T12:06:11.343Z,19.40
2022-12-27T12:09:02.863Z,19.40
2022-12-27T12:11:52.975Z,19.40
2022-12-27T12:14:55.223Z,19.40
2022-12-27T12:17:36.320Z,19.40
2022-12-27T12:20:18.142Z,19.40
2022-12-27T12:23:12.729Z,19.40
2022-12-27T12:25:42.038Z,19.40
2022-12-27T12:28:57.634Z,19.50
2022-12-27T12:31:34.368Z,19.50
2022-12-27T12:34:17.577Z,19.50
2022-12-27T12:36:52.268Z,19.50
2022-12-27T12:39:45.479Z,19.40
2022-12-27T12:42:37.081Z,19.50
2022-12-27T12:45:24.991Z,19.50
2022-12-27T12:48:06.267Z,19.50
2022-12-27T12:50:52.547Z,19.40
2022-12-27T12:53:27.662Z,19.50
2022-12-27T12:56:18.432Z,19.50
2022-12-27T12:58:59.821Z,19.50
2022-12-27T13:01:52.704Z,19.40
2022-12-27T13:04:33.231Z,19.40
2022-12-27T13:07:10.044Z,19.40
2022-12-27T13:09:55.508Z,19.50
2022-12-27T13:13:03.384Z,19.40
2022-12-27T13:15:43.059Z,19.50
2022-12-27T13:18:37.275Z,19.50
2022-12-27T13:21:17.006Z,19.50
2022-12-27T13:24:47.826Z,19.50
2022-12-27T13:27:39.246Z,19.40
2022-12-27T13:30:17.994Z,19.50
2022-12-27T13:32:53.681Z,19.50
2022-12-27T13:35:59.495Z,19.50
2022-12-27T13:38:37.141Z,19.50
2022-12-27T13:41:35.034Z,19.50
2022-12-27T13:44:25.387Z,19.50
2022-12-27T13:47:14.773Z,19.50
2022-12-27T13:50:01.897Z,19.50
2022-12-27T13:53:24.115Z,19.50
2022-12-27T13:56:52.270Z,19.60
2022-12-27T13:59:10.234Z,19.60
2022-12-27T14:01:54.928Z,19.60
2022-12-27T14:04:42.329Z,19.50
2022-12-27T14:07:35.821Z,19.50
2022-12-27T14:10:07.083Z,19.50
2022-12-27T14:13:06.053Z,19.50
2022-12-27T14:15:56.339Z,19.50
2022-12-27T14:18:45.940Z,19.60
2022-12-27T14:21:35.866Z,19.60
2022-12-27T14:24:18.461Z,19.50
2022-12-27T14:27:06.449Z,19.60
2022-12-27T14:30:04.890Z,19.50
2022-12-27T14:33:16.470Z,19.50
2022-12-27T14:36:00.864Z,19.60
2022-12-27T14:39:00.357Z,19.60
2022-12-27T14:41:55.199Z,19.50
2022-12-27T14:44:59.381Z,19.60
2022-12-27T14:47:51.661Z,19.50
2022-12-27T14:50:55.987Z,19.60
2022-12-27T14:53:50.326Z,19.50
2022-12-27T14:59:05.601Z,19.60
2022-12-27T15:02:03.709Z,19.60
2022-12-27T15:04:46.170Z,19.60
2022-12-27T15:07:50.131Z,19.60
2022-12-27T15:10:38.639Z,19.70
2022-12-27T15:13:36.304Z,19.70
2022-12-27T15:16:19.311Z,19.60
2022-12-27T15:19:02.987Z,19.70
2022-12-27T15:21:52.089Z,19.50
2022-12-27T15:24:35.207Z,19.60
2022-12-27T15:27:23.297Z,19.40
2022-12-27T15:30:05.037Z,19.40
2022-12-27T15:33:02.679Z,19.60
2022-12-27T15:35:54.018Z,19.30
2022-12-27T15:38:43.919Z,19.30
2022-12-27T15:44:17.202Z,19.40
2022-12-27T15:47:11.289Z,19.40
2022-12-27T15:50:07.459Z,19.40
2022-12-27T15:52:54.771Z,19.30
2022-12-27T15:55:52.304Z,19.20
2022-12-27T15:58:21.558Z,19.30
2022-12-27T16:01:21.807Z,19.30
2022-12-27T16:03:53.447Z,19.50
2022-12-27T16:06:35.607Z,19.40
2022-12-27T16:09:20.938Z,19.30
2022-12-27T16:11:58.718Z,19.30
2022-12-27T16:14:31.882Z,19.30
2022-12-27T16:17:28.586Z,19.30
2022-12-27T16:20:11.391Z,19.30
2022-12-27T16:22:49.968Z,19.30
2022-12-27T16:25:30.348Z,19.40
2022-12-27T16:28:16.104Z,19.40
2022-12-27T16:30:49.961Z,19.80
2022-12-27T16:33:31.351Z,19.80
2022-12-27T16:36:06.674Z,19.70
2022-12-27T16:38:36.578Z,19.60
2022-12-27T16:41:24.160Z,19.50
2022-12-27T16:44:00.041Z,19.50
2022-12-27T16:46:48.308Z,19.40
2022-12-27T16:49:48.975Z,19.40
2022-12-27T16:52:42.871Z,19.40
2022-12-27T16:55:34.093Z,19.40
2022-12-27T16:58:23.008Z,19.40
2022-12-27T17:00:52.580Z,19.40
2022-12-27T17:03:22.025Z,19.40
2022-12-27T17:06:22.095Z,19.50
2022-12-27T17:08:37.046Z,19.50
2022-12-27T17:11:25.504Z,19.50
2022-12-27T17:14:08.790Z,19.50
2022-12-27T17:16:45.991Z,19.50
2022-12-27T17:19:33.932Z,19.50
2022-12-27T17:22:06.482Z,19.50
2022-12-27T17:24:33.585Z,19.50
2022-12-27T17:27:37.538Z,19.50
2022-12-27T17:30:17.463Z,19.50
2022-12-27T17:33:23.462Z,19.50
2022-12-27T17:36:17.866Z,19.50
2022-12-27T17:38:50.502Z,19.50
2022-12-27T17:41:47.934Z,19.50
2022-12-27T17:44:47.063Z,19.60
2022-12-27T17:47:46.072Z,19.60
2022-12-27T17:50:17.423Z,19.60
2022-12-27T17:53:21.252Z,19.50
2022-12-27T17:56:30.724Z,19.50
2022-12-27T17:59:03.083Z,19.50
2022-12-27T18:01:40.428Z,19.50
2022-12-27T18:04:07.705Z,19.50
2022-12-27T18:06:36.222Z,19.50
2022-12-27T18:09:04.454Z,19.50
2022-12-27T18:11:32.757Z,19.50
2022-12-27T18:14:00.601Z,19.40
2022-12-27T18:16:37.749Z,19.40
2022-12-27T18:19:05.851Z,19.40
2022-12-27T18:21:32.518Z,19.40
2022-12-27T18:23:59.165Z,19.40
2022-12-27T18:26:38.921Z,19.40
2022-12-27T18:29:10.154Z,19.40
2022-12-27T18:31:52.321Z,19.40
2022-12-27T18:34:34.974Z,19.40
2022-12-27T18:37:09.120Z,19.40
2022-12-27T18:39:35.722Z,19.40
2022-12-27T18:42:23.906Z,19.40
2022-12-27T18:44:55.243Z,19.40
2022-12-27T18:47:24.867Z,19.40
2022-12-27T18:49:54.557Z,19.30
2022-12-27T18:52:38.260Z,19.30
2022-12-27T18:55:20.952Z,19.30
2022-12-27T18:57:48.191Z,19.30
2022-12-27T19:00:26.454Z,19.30
2022-12-27T19:02:55.103Z,19.30
2022-12-27T19:05:26.666Z,19.40
2022-12-27T19:08:01.848Z,19.40
2022-12-27T19:10:30.285Z,19.40
2022-12-27T19:12:57.370Z,19.50
2022-12-27T19:15:35.883Z,19.60
2022-12-27T19:18:05.885Z,19.70
2022-12-27T19:20:36.618Z,19.70
2022-12-27T19:23:24.160Z,19.60
2022-12-27T19:26:15.449Z,19.60
2022-12-27T19:28:56.981Z,19.60
2022-12-27T19:31:23.786Z,19.60
2022-12-27T19:33:51.818Z,19.60
2022-12-27T19:36:27.655Z,19.60
2022-12-27T19:38:57.088Z,19.50
2022-12-27T19:41:24.498Z,19.50
2022-12-27T19:43:51.230Z,19.50
2022-12-27T19:46:27.128Z,19.50
2022-12-27T19:51:43.913Z,19.40
2022-12-27T19:54:16.737Z,19.40
2022-12-27T19:56:43.525Z,19.40
2022-12-27T19:59:19.547Z,19.30
2022-12-27T20:01:46.272Z,19.30
2022-12-27T20:04:14.841Z,19.40
2022-12-27T20:06:47.736Z,19.30
2022-12-27T20:09:20.229Z,19.30
2022-12-27T20:11:49.116Z,19.30
2022-12-27T20:14:17.686Z,19.30
2022-12-27T20:16:45.504Z,19.30
2022-12-27T20:19:16.059Z,19.20
2022-12-27T20:21:42.781Z,19.20
2022-12-27T20:24:13.477Z,19.20
2022-12-27T20:26:41.305Z,19.20
2022-12-27T20:29:07.976Z,19.20
2022-12-27T20:31:40.649Z,19.20
2022-12-27T20:34:11.094Z,19.20
2022-12-27T20:36:37.751Z,19.20
2022-12-27T20:39:04.535Z,19.20
2022-12-27T20:41:31.203Z,19.20
2022-12-27T20:43:58.488Z,19.20
2022-12-27T20:46:25.555Z,19.20
2022-12-27T20:48:53.911Z,19.10
2022-12-27T20:51:23.749Z,19.10
2022-12-27T20:53:56.039Z,19.10
2022-12-27T20:56:23.730Z,19.10
2022-12-27T20:58:50.412Z,19.10
2022-12-27T21:01:20.086Z,19.10
2022-12-27T21:03:46.954Z,19.10
2022-12-27T21:06:21.393Z,19.10
2022-12-27T21:08:54.412Z,19.10
2022-12-27T21:11:26.757Z,19.00
2022-12-27T21:13:53.638Z,19.00
2022-12-27T21:16:23.628Z,19.00
2022-12-27T21:18:50.332Z,19.10
2022-12-27T21:21:20.078Z,19.10
2022-12-27T21:23:47.829Z,19.10
2022-12-27T21:26:17.472Z,19.00
2022-12-27T21:28:44.787Z,19.00
2022-12-27T21:31:13.059Z,19.00
2022-12-27T21:33:39.757Z,19.00
2022-12-27T21:36:13.773Z,19.10
2022-12-27T21:38:40.851Z,19.10
2022-12-27T21:41:11.534Z,19.00
2022-12-27T21:43:39.086Z,19.00
2022-12-27T21:46:10.952Z,19.00
2022-12-27T21:48:38.084Z,19.00
2022-12-27T21:51:10.117Z,19.00
2022-12-27T21:53:36.845Z,19.00
2022-12-27T21:56:04.109Z,19.00
2022-12-27T21:58:35.975Z,19.00
2022-12-27T22:01:14.480Z,18.90
2022-12-27T22:03:43.138Z,19.00
2022-12-27T22:06:15.524Z,18.90
2022-12-27T22:08:43.970Z,18.90
2022-12-27T22:11:11.304Z,18.90
2022-12-27T22:13:38.086Z,18.90
2022-12-27T22:16:07.134Z,18.90
2022-12-27T22:18:35.943Z,18.90
2022-12-27T22:21:05.152Z,18.90
2022-12-27T22:23:33.088Z,18.90
2022-12-27T22:25:59.904Z,18.90
2022-12-27T22:28:26.569Z,18.90
2022-12-27T22:30:53.279Z,18.90
2022-12-27T22:33:20.437Z,18.90
2022-12-27T22:35:47.088Z,18.80
2022-12-27T22:38:13.721Z,18.80
2022-12-27T22:40:46.424Z,18.80
2022-12-27T22:43:14.023Z,18.80
2022-12-27T22:45:42.431Z,18.80
2022-12-27T22:48:09.149Z,18.80
2022-12-27T22:50:37.600Z,18.80
2022-12-27T22:53:04.388Z,18.80
2022-12-27T22:55:30.981Z,18.80
2022-12-27T22:57:57.590Z,18.80
2022-12-27T23:00:24.276Z,18.80
2022-12-27T23:02:50.980Z,18.80
2022-12-27T23:05:17.758Z,18.80
2022-12-27T23:08:04.646Z,18.80
2022-12-27T23:10:31.227Z,18.80
2022-12-27T23:12:57.825Z,18.70
2022-12-27T23:15:24.435Z,18.80
2022-12-27T23:17:52.047Z,18.70
2022-12-27T23:20:19.026Z,18.70
2022-12-27T23:22:45.683Z,18.70
2022-12-27T23:25:12.324Z,18.70
2022-12-27T23:27:38.968Z,18.70
2022-12-27T23:30:06.129Z,19.00
2022-12-27T23:32:32.742Z,18.70
2022-12-27T23:34:59.344Z,18.70
2022-12-27T23:37:25.931Z,18.70
2022-12-27T23:39:52.605Z,18.70
2022-12-27T23:42:19.193Z,18.70
2022-12-27T23:44:45.816Z,18.70
2022-12-27T23:47:12.450Z,18.60
2022-12-27T23:49:39.063Z,18.70
2022-12-27T23:52:05.741Z,18.70
2022-12-27T23:54:32.332Z,18.70
2022-12-27T23:57:19.440Z,18.60
2022-12-27T23:59:45.509Z,18.70
